Latest Weather Observations for Winton

IDQ60801

Issued at 1:32 pm EST Saturday 28 May 2016 (issued every 30 minutes, with the page automatically refreshed every 10 minutes)

About weather observations | Map of weather stations | Latest weather observations for QLD | Other Formats
Station Details ID: 037039 Name: WINTON AIRPORT Lat: -22.36 Lon: 143.08 Height: 192.2 m
Data from the previous 72 hours. | See also: Recent months at Winton
Date/Time
EST
Temp
°C
App
Temp
°C
Dew
Point
Rel
Hum
%
Delta-T
°C
Wind Press
QNH
hPa
Press
MSL
hPa
Rain
since 9 am
mm
Dir
 
Spd
km/h
Gust
km/h
Spd
kts
Gust
kts
28/01:30pm 23.9 21.1 5.3 30 9.4 S 9 15 5 8 1017.2 1016.5 0.0
28/01:00pm 23.4 20.8 6.2 33 8.8 S 9 17 5 9 1017.6 1016.9 0.0
28/12:30pm 22.8 20.3 6.6 35 8.4 SSE 9 17 5 9 1018.2 1017.6 0.0
28/12:00pm 22.0 19.1 6.7 37 7.9 SSE 11 24 6 13 1018.6 1018.0 0.0
28/11:30am 21.2 18.3 6.7 39 7.4 SSE 11 20 6 11 1019.2 1018.6 0.0
28/11:00am 21.2 19.0 7.8 42 7.0 SE 9 19 5 10 1019.6 1019.0 0.0
28/10:30am 20.6 17.4 8.3 45 6.5 SE 15 22 8 12 1019.9 1019.3 0.0
28/10:00am 20.1 17.0 8.8 48 6.0 SSE 15 22 8 12 1020.4 1019.8 0.0
28/09:30am 18.9 16.6 9.1 53 5.2 SSE 11 19 6 10 1020.5 1019.9 0.0
28/09:00am 17.8 15.9 9.2 57 4.5 S 9 13 5 7 1020.2 1019.6 0.0
28/08:30am 17.1 15.3 9.5 61 4.0 SSW 9 13 5 7 1019.9 1019.3 0.0
28/08:00am 15.9 14.4 9.3 65 3.4 SSW 7 11 4 6 1019.6 1019.0 0.0
28/07:30am 14.3 14.1 8.9 70 2.8 CALM 0 0 0 0 1019.2 1018.6 0.0
28/07:00am 13.3 12.5 8.2 71 2.6 SSW 2 2 1 1 1018.7 1018.1 0.0
28/06:30am 13.5 11.8 8.4 71 2.6 SSW 7 9 4 5 1018.2 1017.6 0.0
28/06:00am 13.5 11.9 8.1 70 2.7 SSW 6 7 3 4 1018.1 1017.5 0.0
28/05:30am - - - - - S 9 11 5 6 1017.9 1017.2 0.0
28/05:00am 13.9 12.3 7.9 67 3.0 SSW 6 7 3 4 1017.8 1017.1 0.0
28/04:30am 14.5 12.7 7.8 64 3.4 SSW 7 9 4 5 1017.5 1016.8 0.0
28/04:00am 15.4 14.2 7.9 61 3.8 SSW 4 6 2 3 1017.4 1016.7 0.0
28/03:30am 16.3 15.1 8.0 58 4.2 S 4 7 2 4 1017.1 1016.4 0.0
28/03:00am 17.3 14.8 8.2 55 4.7 S 11 13 6 7 1017.0 1016.3 0.0
28/02:30am 17.9 14.9 7.6 51 5.3 S 13 17 7 9 1017.1 1016.4 0.0
28/02:00am 18.4 16.0 6.9 47 5.8 SSW 9 15 5 8 1017.0 1016.3 0.0
28/01:30am 19.1 15.7 7.5 47 6.0 SSW 15 19 8 10 1016.9 1016.2 0.0
28/01:00am 19.5 16.1 7.6 46 6.1 SSW 15 20 8 11 1016.8 1016.1 0.0
28/12:30am 20.0 17.0 7.7 45 6.4 S 13 20 7 11 1016.7 1016.0 0.0
28/12:00am 20.4 17.1 8.1 45 6.4 S 15 20 8 11 1016.8 1016.1 0.0
 
Date/Time
EST
Temp
°C
App
Temp
°C
Dew
Point
Rel
Hum
%
Delta-T
°C
Wind Press
QNH
hPa
Press
MSL
hPa
Rain
since 9 am
mm
Dir
 
Spd
km/h
Gust
km/h
Spd
kts
Gust
kts
27/11:30pm 20.6 17.5 8.9 47 6.2 SSW 15 20 8 11 1016.8 1016.1 0.0
27/11:00pm 20.3 17.3 9.2 49 5.9 S 15 22 8 12 1016.6 1015.9 0.0
27/10:30pm 20.4 18.3 9.6 50 5.8 S 11 17 6 9 1016.3 1015.6 0.0
27/10:00pm 21.0 18.3 10.2 50 5.9 S 15 20 8 11 1016.3 1015.6 0.0
27/09:30pm 21.2 18.6 10.7 51 5.8 S 15 22 8 12 1016.3 1015.6 0.0
27/09:00pm 21.3 18.0 10.8 51 5.8 S 19 28 10 15 1016.3 1015.6 0.0
27/08:30pm 21.6 17.3 10.7 50 6.0 S 24 39 13 21 1016.0 1015.3 0.0
27/08:00pm 22.6 16.4 11.4 49 6.3 S 35 46 19 25 1015.4 1014.8 0.0
27/07:39pm 24.4 19.5 11.4 44 7.4 SSW 28 52 15 28 1014.8 1014.2 0.0
27/07:30pm 25.5 22.5 12.0 43 7.8 SSW 19 22 10 12 1014.5 1013.9 0.0
27/07:00pm 26.4 22.1 12.1 41 8.3 SSW 26 37 14 20 1014.2 1013.6 0.0
27/06:30pm 27.3 22.6 12.1 39 8.9 SSW 28 35 15 19 1013.7 1013.1 0.0
27/06:00pm 27.9 24.4 12.3 38 9.1 SSW 22 32 12 17 1013.2 1012.5 0.0
27/05:30pm 29.3 24.8 12.7 36 9.8 SW 28 35 15 19 1012.8 1012.1 0.0
27/05:00pm 30.5 25.7 12.9 34 10.5 SW 30 37 16 20 1012.4 1011.7 0.0
27/04:30pm 31.1 27.6 13.4 34 10.7 SW 24 32 13 17 1012.0 1011.3 0.0
27/04:00pm 31.5 28.5 13.7 33 10.8 WSW 22 32 12 17 1011.8 1011.1 0.0
27/03:30pm 31.7 29.2 13.5 33 11.0 SW 19 28 10 15 1011.8 1011.1 0.0
27/03:00pm 31.5 28.4 13.3 33 11.0 SW 22 30 12 16 1011.6 1010.9 0.0
27/02:30pm 31.5 28.0 13.3 33 11.0 WSW 24 33 13 18 1011.7 1011.0 0.0
27/02:00pm 30.8 28.9 13.1 34 10.6 SW 15 22 8 12 1011.9 1011.2 0.0
27/01:30pm 31.4 31.2 13.6 33 10.8 W 7 17 4 9 1012.2 1011.5 0.0
27/01:00pm 30.4 30.3 13.2 35 10.3 W 6 17 3 9 1012.5 1011.8 0.0
27/12:30pm 30.0 29.8 12.9 35 10.2 WSW 6 9 3 5 1013.2 1012.5 0.0
27/12:00pm 29.4 29.3 13.2 37 9.7 SW 6 9 3 5 1013.6 1013.0 0.0
27/11:30am 28.8 28.8 13.5 39 9.2 SSE 6 11 3 6 1014.0 1013.4 0.0
27/11:00am 28.4 28.5 13.9 41 8.7 SE 6 9 3 5 1014.5 1013.9 0.0
27/10:30am 27.6 28.1 13.9 43 8.2 SE 4 9 2 5 1014.9 1014.3 0.0
27/10:00am 26.6 26.6 13.7 45 7.7 SSE 6 11 3 6 1015.1 1014.5 0.0
27/09:30am 26.2 26.0 13.7 46 7.4 S 7 9 4 5 1014.8 1014.2 0.0
27/09:00am 25.7 26.3 13.2 46 7.4 SSW 2 6 1 3 1014.3 1013.7 0.0
27/08:30am 24.4 25.0 15.3 57 5.5 N 6 7 3 4 1013.8 1013.2 0.0
27/08:00am 21.8 21.9 15.6 68 3.7 NNW 9 11 5 6 1013.8 1013.2 0.0
27/07:30am 18.9 19.0 15.6 81 2.0 NNW 9 11 5 6 1013.7 1013.1 0.0
27/07:00am 17.6 17.8 14.7 83 1.7 N 7 11 4 6 1013.3 1012.6 0.0
27/06:30am 17.9 17.4 15.0 83 1.7 NNE 11 13 6 7 1012.8 1012.1 0.0
27/06:00am 17.7 17.6 15.0 84 1.6 NNE 9 13 5 7 1012.8 1012.1 0.0
27/05:30am 17.7 18.3 14.2 80 2.0 W 4 6 2 3 1012.5 1011.8 0.0
27/05:00am 17.8 17.8 14.3 80 2.0 SSW 7 7 4 4 1012.7 1012.0 0.0
27/04:30am 18.5 18.8 14.4 77 2.4 SW 6 7 3 4 1012.6 1011.9 0.0
27/04:00am 20.2 20.5 14.6 70 3.3 NW 6 9 3 5 1012.4 1011.7 0.0
27/03:30am 20.4 19.8 14.5 69 3.5 NNW 11 11 6 6 1012.3 1011.6 0.0
27/03:00am 20.9 20.1 15.0 69 3.5 NW 13 13 7 7 1012.3 1011.6 0.0
27/02:30am 21.1 20.3 15.2 69 3.5 NW 13 15 7 8 1012.3 1011.6 0.0
27/02:00am 21.3 20.4 14.9 67 3.8 NW 13 15 7 8 1012.4 1011.7 0.0
27/01:30am 22.0 21.0 14.6 63 4.4 NW 13 15 7 8 1012.5 1011.8 0.0
27/01:00am 22.0 20.7 14.9 64 4.2 NW 15 15 8 8 1012.3 1011.6 0.0
27/12:30am 21.4 20.9 14.8 66 3.9 NW 11 13 6 7 1012.5 1011.8 0.0
27/12:00am 22.0 21.5 14.9 64 4.2 NW 11 11 6 6 1012.5 1011.8 0.0
 
Date/Time
EST
Temp
°C
App
Temp
°C
Dew
Point
Rel
Hum
%
Delta-T
°C
Wind Press
QNH
hPa
Press
MSL
hPa
Rain
since 9 am
mm
Dir
 
Spd
km/h
Gust
km/h
Spd
kts
Gust
kts
26/11:30pm 22.6 22.2 15.2 63 4.4 NW 11 13 6 7 1012.9 1012.2 0.0
26/11:00pm 23.1 23.4 15.9 64 4.4 NW 9 13 5 7 1013.0 1012.3 0.0
26/10:30pm 23.2 22.7 16.0 64 4.4 NNW 13 13 7 7 1012.8 1012.1 0.0
26/10:00pm 23.2 23.2 16.3 65 4.2 NNW 11 13 6 7 1013.1 1012.4 0.0
26/09:30pm 23.9 24.0 16.4 63 4.6 NNW 11 11 6 6 1013.0 1012.3 0.0
26/09:00pm 24.5 24.5 16.2 60 5.1 NW 11 11 6 6 1013.1 1012.4 0.0
26/08:30pm 25.5 26.3 16.4 57 5.6 NNW 7 11 4 6 1012.9 1012.2 0.0
26/08:00pm 26.0 26.4 16.3 55 6.0 NNW 9 11 5 6 1012.7 1012.0 0.0
26/07:30pm 26.7 27.4 16.0 52 6.6 NW 7 9 4 5 1012.3 1011.6 0.0
26/07:00pm 27.2 27.5 15.9 50 7.0 NNW 9 11 5 6 1011.9 1011.2 0.0
26/06:30pm 27.9 27.9 15.2 46 7.8 NNW 9 13 5 7 1011.6 1010.9 0.0
26/06:00pm 29.6 28.8 15.0 41 9.0 NNW 13 15 7 8 1011.3 1010.6 0.0
26/05:30pm 31.2 29.0 14.4 36 10.3 NW 19 24 10 13 1011.2 1010.5 0.0
26/05:00pm - - - - - NW 15 20 8 11 1011.1 1010.4 0.0
26/04:30pm - - - - - NW 22 30 12 16 1011.0 1010.3 0.0
26/04:00pm - - - - - WNW 17 24 9 13 1011.0 1010.3 0.0
26/03:30pm 32.7 31.3 13.4 31 11.7 W 13 20 7 11 1011.1 1010.4 0.0
26/03:00pm 33.0 32.6 14.1 32 11.6 W 9 19 5 10 1011.4 1010.7 0.0
26/02:30pm 33.3 31.3 13.9 31 11.9 NW 17 33 9 18 1011.6 1010.9 0.0
26/02:00pm 32.6 30.0 13.3 31 11.7 WNW 19 32 10 17 1012.0 1011.3 0.0
26/01:30pm 32.5 30.1 13.7 32 11.5 WNW 19 28 10 15 1012.5 1011.8 0.0
26/01:00pm 32.4 31.1 13.6 32 11.4 WNW 13 30 7 16 1013.0 1012.3 0.0
26/12:30pm 31.4 29.6 13.2 33 11.0 WNW 15 20 8 11 1013.7 1013.1 0.0
26/12:00pm 31.4 29.6 13.2 33 11.0 WNW 15 24 8 13 1014.4 1013.8 0.0
26/11:30am 30.7 29.3 13.5 35 10.4 WNW 13 20 7 11 1014.9 1014.3 0.0
26/11:00am 29.5 28.5 13.3 37 9.7 WNW 11 17 6 9 1015.4 1014.8 0.0
26/10:30am 28.4 28.4 14.3 42 8.5 NW 7 9 4 5 1015.7 1015.1 0.0
26/10:00am 26.0 26.2 14.1 47 7.1 NW 6 9 3 5 1015.8 1015.2 0.0
26/09:30am 24.0 24.3 13.5 52 6.2 WNW 4 7 2 4 1015.8 1015.2 0.0
26/09:00am 22.9 22.4 13.7 56 5.4 WNW 9 13 5 7 1015.8 1015.2 0.0
26/08:30am 21.6 21.7 14.0 62 4.5 WSW 6 9 3 5 1015.3 1014.7 0.0
26/08:00am 20.3 21.3 14.2 68 3.6 N 2 7 1 4 1014.9 1014.3 0.0
26/07:30am 18.7 18.8 14.0 74 2.7 NE 6 7 3 4 1014.4 1013.8 0.0
26/07:00am 17.9 17.0 13.8 77 2.4 NE 11 13 6 7 1014.1 1013.5 0.0
26/06:30am 18.1 17.2 13.8 76 2.5 NE 11 13 6 7 1013.9 1013.3 0.0
26/06:00am 18.8 17.9 13.6 72 3.0 NE 11 13 6 7 1013.7 1013.1 0.0
26/05:30am 19.0 17.6 13.4 70 3.2 NE 13 15 7 8 1013.4 1012.7 0.0
26/05:00am 19.5 18.0 13.2 67 3.6 NE 13 15 7 8 1013.3 1012.6 0.0
26/04:30am 19.8 18.8 13.5 67 3.6 NNE 11 13 6 7 1013.4 1012.7 0.0
26/04:00am 20.1 18.8 13.8 67 3.7 NE 13 13 7 7 1013.4 1012.7 0.0
26/03:30am 20.4 19.5 13.8 66 3.8 NE 11 13 6 7 1013.5 1012.9 0.0
26/03:00am 20.7 20.0 14.4 67 3.7 NE 11 13 6 7 1013.6 1013.0 0.0
26/02:30am 20.6 19.8 15.2 71 3.2 NE 13 13 7 7 1013.7 1013.1 0.0
26/02:00am 20.9 20.5 15.2 70 3.4 NE 11 13 6 7 1013.9 1013.3 0.0
26/01:30am 21.5 21.0 14.9 66 3.9 NE 11 13 6 7 1014.2 1013.6 0.0
26/01:00am 22.0 22.2 15.8 68 3.8 NE 9 9 5 5 1014.5 1013.9 0.0
26/12:30am 21.9 22.0 15.5 67 3.9 NE 9 9 5 5 1014.7 1014.1 0.0
26/12:00am 21.4 22.0 15.9 71 3.3 NE 7 7 4 4 1014.9 1014.3 0.0
 
Date/Time
EST
Temp
°C
App
Temp
°C
Dew
Point
Rel
Hum
%
Delta-T
°C
Wind Press
QNH
hPa
Press
MSL
hPa
Rain
since 9 am
mm
Dir
 
Spd
km/h
Gust
km/h
Spd
kts
Gust
kts
25/11:30pm 20.6 20.4 15.6 73 3.0 E 11 15 6 8 1014.9 1014.3 0.0
25/11:00pm 21.4 23.4 15.9 71 3.3 CALM 0 0 0 0 1014.8 1014.2 0.0
25/10:30pm 21.3 23.2 15.8 71 3.3 CALM 0 0 0 0 1015.0 1014.4 0.0
25/10:00pm 21.9 22.5 15.7 68 3.7 W 7 7 4 4 1014.9 1014.3 0.0
25/09:30pm 22.3 22.0 15.4 65 4.2 WNW 11 13 6 7 1014.8 1014.2 0.0
25/09:00pm 22.9 23.3 15.2 62 4.6 WNW 7 9 4 5 1014.6 1014.0 0.0
25/08:30pm 23.8 24.2 15.3 59 5.1 WNW 7 7 4 4 1014.3 1013.7 0.0
25/08:00pm 24.9 25.7 14.7 53 6.1 NNW 4 4 2 2 1014.0 1013.4 0.0
25/07:30pm 25.3 26.0 14.4 50 6.5 NNW 4 4 2 2 1013.7 1013.1 0.0
25/07:00pm 26.7 27.1 13.8 45 7.7 N 4 4 2 2 1013.5 1012.9 0.0
25/06:30pm 26.0 26.7 14.5 49 6.9 N 4 6 2 3 1013.2 1012.5 0.0
25/06:00pm 27.7 27.3 12.9 40 8.7 N 7 9 4 5 1013.0 1012.3 0.0
25/05:30pm 29.8 28.4 12.3 34 10.3 N 11 13 6 7 1012.6 1011.9 0.0
25/05:00pm 30.7 29.6 12.1 32 11.0 NNE 9 17 5 9 1012.4 1011.7 0.0
25/04:30pm 31.1 30.2 12.5 32 11.1 N 9 13 5 7 1012.4 1011.7 0.0
25/04:00pm 31.1 29.4 12.5 32 11.1 N 13 19 7 10 1012.4 1011.7 0.0
25/03:30pm 31.4 30.5 12.7 32 11.2 ENE 9 17 5 9 1012.4 1011.7 0.0
25/03:00pm 31.1 29.8 12.5 32 11.1 NE 11 17 6 9 1012.7 1012.0 0.0
25/02:30pm 30.9 30.1 12.8 33 10.8 NE 9 17 5 9 1013.0 1012.3 0.0
25/02:00pm 30.8 29.9 12.7 33 10.8 NE 9 17 5 9 1013.3 1012.6 0.0

Other Formats:

Comma delimited format used in spreadsheet applications
http://www.bom.gov.au/fwo/IDQ60801/IDQ60801.94342.axf

JavaScript Object Notation format (JSON) in row-major order
http://www.bom.gov.au/fwo/IDQ60801/IDQ60801.94342.json